Time;durP1;ratioP1;P1;durP2;ratioP2;P2;SDS_P1;SDS_P2;PMS_P1;PMS_P2;Temp;Humidity;BMP_temperature;BMP_pressure;BME280_temperature;BME280_humidity;BME280_pressure;Samples;Min_cycle;Max_cycle;Signal;HPM_P1;HPM_P2
2022/03/31 00:00:28;;;;;;;1.90;1.80;;;;;;;;;;5052183;28;20196;-71
2022/03/31 00:02:55;;;;;;;3.07;1.63;;;;;;;;;;5051026;28;20234;-71
2022/03/31 00:05:20;;;;;;;1.90;1.60;;;;;;;;;;5041003;28;22146;-71
2022/03/31 00:07:52;;;;;;;4.43;1.90;;;;;;;;;;5051436;28;20204;-71
2022/03/31 00:10:23;;;;;;;2.53;1.80;;;;;;;;;;5049944;28;20582;-71
2022/03/31 00:12:48;;;;;;;2.67;1.93;;;;;;;;;;5047941;28;20170;-70
2022/03/31 00:15:13;;;;;;;2.90;2.20;;;;;;;;;;5051739;28;20188;-71
2022/03/31 00:17:38;;;;;;;3.87;2.00;;;;;;;;;;5051416;28;20242;-71
2022/03/31 00:20:04;;;;;;;2.47;1.90;;;;;;;;;;5051400;28;20555;-71
2022/03/31 00:22:29;;;;;;;6.43;2.97;;;;;;;;;;5050287;28;20173;-71
2022/03/31 00:24:55;;;;;;;2.97;1.93;;;;;;;;;;5050450;28;20205;-71
2022/03/31 00:27:20;;;;;;;2.83;1.97;;;;;;;;;;5048839;28;20209;-71
2022/03/31 00:29:45;;;;;;;1.80;1.70;;;;;;;;;;5046725;28;20185;-70
2022/03/31 00:32:10;;;;;;;1.90;1.70;;;;;;;;;;5049341;28;20186;-71
2022/03/31 00:34:35;;;;;;;1.83;1.40;;;;;;;;;;5048667;28;20182;-71
2022/03/31 00:37:01;;;;;;;1.73;1.40;;;;;;;;;;5047243;28;20170;-71
2022/03/31 00:39:29;;;;;;;1.43;1.33;;;;;;;;;;5051629;28;20228;-70
2022/03/31 00:41:55;;;;;;;2.23;1.50;;;;;;;;;;5048978;28;20178;-71
2022/03/31 00:44:20;;;;;;;1.97;1.70;;;;;;;;;;5050661;28;20745;-71
2022/03/31 00:46:47;;;;;;;2.93;1.40;;;;;;;;;;5050273;28;20231;-71
2022/03/31 00:49:13;;;;;;;3.30;1.93;;;;;;;;;;5046342;28;20240;-71
2022/03/31 00:51:38;;;;;;;2.63;1.53;;;;;;;;;;5049980;28;20213;-71
2022/03/31 00:54:03;;;;;;;2.30;2.00;;;;;;;;;;5050309;28;20197;-71
2022/03/31 00:56:29;;;;;;;2.47;1.90;;;;;;;;;;5041255;28;20177;-71
2022/03/31 00:58:54;;;;;;;3.60;1.77;;;;;;;;;;5047622;28;20260;-71
2022/03/31 01:01:21;;;;;;;2.00;1.60;;;;;;;;;;5050335;28;20258;-71
2022/03/31 01:03:46;;;;;;;2.53;2.07;;;;;;;;;;5048029;28;20208;-72
2022/03/31 01:06:11;;;;;;;3.03;2.00;;;;;;;;;;5050262;28;20263;-71
2022/03/31 01:08:36;;;;;;;3.80;2.10;;;;;;;;;;5046265;28;20202;-71
2022/03/31 01:11:02;;;;;;;2.23;1.90;;;;;;;;;;5042898;28;20614;-71
2022/03/31 01:13:27;;;;;;;2.30;2.10;;;;;;;;;;5046215;28;20185;-71
2022/03/31 01:15:52;;;;;;;2.60;2.40;;;;;;;;;;5049276;28;20678;-71
2022/03/31 01:18:18;;;;;;;2.20;1.93;;;;;;;;;;5049933;28;20205;-71
2022/03/31 01:20:43;;;;;;;3.13;2.00;;;;;;;;;;5050816;28;20536;-71
2022/03/31 01:23:12;;;;;;;2.63;2.37;;;;;;;;;;5049204;28;20570;-71
2022/03/31 01:25:37;;;;;;;2.97;2.43;;;;;;;;;;5050112;28;20177;-71
2022/03/31 01:28:02;;;;;;;2.97;2.20;;;;;;;;;;5048347;28;20292;-70
2022/03/31 01:30:28;;;;;;;2.97;2.20;;;;;;;;;;5050023;28;20185;-71
2022/03/31 01:32:53;;;;;;;2.10;1.90;;;;;;;;;;5048924;28;20185;-71
2022/03/31 01:35:19;;;;;;;2.37;1.90;;;;;;;;;;5047206;28;20201;-71
2022/03/31 01:37:44;;;;;;;2.57;2.27;;;;;;;;;;5047470;28;20263;-71
2022/03/31 01:40:10;;;;;;;4.20;2.43;;;;;;;;;;5049332;28;20687;-70
2022/03/31 01:42:36;;;;;;;2.17;1.93;;;;;;;;;;5046573;28;20640;-71
2022/03/31 01:45:02;;;;;;;2.40;1.97;;;;;;;;;;5046579;28;20173;-71
2022/03/31 01:47:27;;;;;;;2.63;2.17;;;;;;;;;;5044036;28;20209;-71
2022/03/31 01:49:53;;;;;;;4.03;2.97;;;;;;;;;;5053866;28;20646;-71
2022/03/31 01:52:18;;;;;;;2.53;2.33;;;;;;;;;;5050421;28;20698;-70
2022/03/31 01:54:43;;;;;;;2.50;2.30;;;;;;;;;;5045103;28;20198;-71
2022/03/31 01:57:09;;;;;;;2.17;2.00;;;;;;;;;;5042813;28;20251;-71
2022/03/31 01:59:36;;;;;;;5.17;2.60;;;;;;;;;;5052214;28;20576;-71
2022/03/31 02:02:01;;;;;;;2.93;2.57;;;;;;;;;;5052318;28;20182;-71
2022/03/31 02:04:26;;;;;;;2.10;1.93;;;;;;;;;;5053087;28;20182;-71
2022/03/31 02:06:52;;;;;;;3.10;2.67;;;;;;;;;;5052712;28;20189;-71
2022/03/31 02:09:17;;;;;;;3.07;2.00;;;;;;;;;;5050810;28;20182;-71
2022/03/31 02:11:45;;;;;;;2.50;2.27;;;;;;;;;;5046724;28;20200;-71
2022/03/31 02:14:10;;;;;;;3.17;2.63;;;;;;;;;;5048065;28;20205;-70
2022/03/31 02:16:36;;;;;;;2.70;2.50;;;;;;;;;;5049721;28;20606;-70
2022/03/31 02:19:01;;;;;;;2.93;2.47;;;;;;;;;;5053114;28;20190;-70
2022/03/31 02:21:26;;;;;;;2.57;2.20;;;;;;;;;;5053773;28;20220;-71
2022/03/31 02:23:52;;;;;;;3.37;2.70;;;;;;;;;;5047264;28;20716;-71
2022/03/31 02:26:17;;;;;;;5.57;2.67;;;;;;;;;;5048190;28;20183;-70
2022/03/31 02:28:42;;;;;;;3.90;2.90;;;;;;;;;;5049909;28;20555;-71
2022/03/31 02:31:08;;;;;;;4.00;2.90;;;;;;;;;;5051623;28;20184;-71
2022/03/31 02:33:33;;;;;;;3.03;2.73;;;;;;;;;;5046197;28;20182;-71
2022/03/31 02:35:58;;;;;;;3.23;2.57;;;;;;;;;;5050200;28;20213;-70
2022/03/31 02:38:23;;;;;;;2.87;2.60;;;;;;;;;;5052057;28;20217;-71
2022/03/31 02:40:48;;;;;;;2.60;2.37;;;;;;;;;;5052837;28;20166;-71
2022/03/31 02:43:14;;;;;;;5.27;2.30;;;;;;;;;;5045231;28;20567;-71
2022/03/31 02:45:39;;;;;;;3.33;2.83;;;;;;;;;;5048728;28;20200;-71
2022/03/31 02:48:04;;;;;;;2.87;1.83;;;;;;;;;;5050299;28;20298;-71
2022/03/31 02:50:30;;;;;;;3.40;1.90;;;;;;;;;;5052763;28;20184;-72
2022/03/31 02:55:39;;;;;;;2.03;1.77;;;;;;;;;;5052870;28;20192;-71
2022/03/31 02:58:04;;;;;;;3.10;2.30;;;;;;;;;;5046644;28;20198;-72
2022/03/31 03:00:31;;;;;;;3.03;1.87;;;;;;;;;;5052852;28;20177;-69
2022/03/31 03:02:56;;;;;;;3.20;2.17;;;;;;;;;;5048382;28;20201;-70
2022/03/31 03:05:22;;;;;;;2.80;2.17;;;;;;;;;;5052393;28;20440;-71
2022/03/31 03:07:47;;;;;;;4.30;2.10;;;;;;;;;;5049657;28;20190;-71
2022/03/31 03:10:13;;;;;;;2.70;2.20;;;;;;;;;;5052550;28;20651;-71
2022/03/31 03:12:40;;;;;;;5.43;3.70;;;;;;;;;;5050989;28;20177;-71
2022/03/31 03:15:05;;;;;;;3.60;2.70;;;;;;;;;;5044792;28;20260;-70
2022/03/31 03:17:31;;;;;;;3.77;2.23;;;;;;;;;;5048421;28;20189;-70
2022/03/31 03:19:56;;;;;;;2.63;2.20;;;;;;;;;;5052467;28;20174;-69
2022/03/31 03:22:21;;;;;;;4.87;2.67;;;;;;;;;;5050110;28;20185;-71
2022/03/31 03:24:46;;;;;;;2.77;2.57;;;;;;;;;;5051063;28;20236;-69
2022/03/31 03:27:11;;;;;;;4.40;2.07;;;;;;;;;;5049538;28;20668;-70
2022/03/31 03:29:36;;;;;;;2.37;1.93;;;;;;;;;;5052221;28;20178;-69
2022/03/31 03:32:02;;;;;;;2.47;2.20;;;;;;;;;;5045917;28;20193;-69
2022/03/31 03:34:27;;;;;;;2.90;2.20;;;;;;;;;;5049842;28;20225;-69
2022/03/31 03:36:52;;;;;;;3.47;2.47;;;;;;;;;;5042919;28;20272;-69
2022/03/31 03:39:17;;;;;;;2.10;1.90;;;;;;;;;;5046292;28;20615;-69
2022/03/31 03:41:42;;;;;;;4.03;2.40;;;;;;;;;;5051250;28;20204;-69
2022/03/31 03:44:08;;;;;;;3.90;2.20;;;;;;;;;;5048244;28;20205;-70
2022/03/31 03:46:34;;;;;;;4.13;2.47;;;;;;;;;;5043976;28;20181;-70
2022/03/31 03:48:59;;;;;;;2.70;2.00;;;;;;;;;;5051913;28;20267;-69
2022/03/31 03:51:25;;;;;;;4.43;2.77;;;;;;;;;;5051633;28;20181;-70
2022/03/31 03:53:52;;;;;;;2.80;2.50;;;;;;;;;;5050370;28;20185;-69
2022/03/31 03:56:18;;;;;;;3.40;2.70;;;;;;;;;;5050393;28;20190;-69
2022/03/31 03:58:43;;;;;;;3.00;2.70;;;;;;;;;;5051275;28;20220;-70
2022/03/31 04:01:08;;;;;;;4.33;3.50;;;;;;;;;;5050876;28;20181;-69
2022/03/31 04:03:34;;;;;;;5.27;2.90;;;;;;;;;;5050570;28;21066;-70
2022/03/31 04:05:59;;;;;;;4.10;3.40;;;;;;;;;;5051791;28;20228;-70
2022/03/31 04:08:25;;;;;;;4.40;3.37;;;;;;;;;;5050765;28;20201;-70
2022/03/31 04:10:50;;;;;;;4.80;3.60;;;;;;;;;;5048563;28;20719;-70
2022/03/31 04:13:15;;;;;;;7.27;3.83;;;;;;;;;;5051126;28;20181;-68
2022/03/31 04:15:40;;;;;;;4.20;3.20;;;;;;;;;;5051291;28;20201;-70
2022/03/31 04:18:07;;;;;;;4.33;3.33;;;;;;;;;;5049707;28;20695;-70
2022/03/31 04:20:32;;;;;;;5.10;3.57;;;;;;;;;;5048287;28;20165;-69
2022/03/31 04:22:57;;;;;;;5.33;3.20;;;;;;;;;;5050560;28;20176;-69
2022/03/31 04:25:24;;;;;;;5.60;3.43;;;;;;;;;;5051277;28;20776;-70
2022/03/31 04:27:49;;;;;;;4.20;2.83;;;;;;;;;;5033757;28;20198;-69
2022/03/31 04:30:18;;;;;;;4.43;2.43;;;;;;;;;;5047299;28;20289;-69
2022/03/31 04:32:43;;;;;;;4.43;2.70;;;;;;;;;;5049496;28;20181;-70
2022/03/31 04:35:10;;;;;;;4.47;2.60;;;;;;;;;;5050440;28;20204;-70
2022/03/31 04:37:36;;;;;;;3.97;2.83;;;;;;;;;;5047381;28;20201;-70
2022/03/31 04:40:02;;;;;;;2.87;2.33;;;;;;;;;;5045760;28;20228;-70
2022/03/31 04:42:27;;;;;;;4.37;2.87;;;;;;;;;;5048099;28;20205;-70
2022/03/31 04:44:52;;;;;;;4.87;3.03;;;;;;;;;;5047346;28;20629;-70
2022/03/31 04:47:17;;;;;;;3.00;2.57;;;;;;;;;;5050662;28;20206;-70
2022/03/31 04:49:43;;;;;;;5.77;2.40;;;;;;;;;;5050050;28;20173;-70
2022/03/31 04:52:08;;;;;;;6.83;2.43;;;;;;;;;;5042757;28;20194;-69
2022/03/31 04:54:33;;;;;;;3.60;2.53;;;;;;;;;;5043930;28;20201;-70
2022/03/31 04:56:59;;;;;;;5.43;2.27;;;;;;;;;;5047780;28;20215;-69
2022/03/31 04:59:24;;;;;;;2.83;2.33;;;;;;;;;;5050746;28;20212;-69
2022/03/31 05:01:49;;;;;;;3.33;2.20;;;;;;;;;;5036338;28;20296;-69
2022/03/31 05:04:16;;;;;;;3.47;2.07;;;;;;;;;;5048772;28;20670;-69
2022/03/31 05:06:41;;;;;;;2.93;2.10;;;;;;;;;;5049811;28;20706;-70
2022/03/31 05:09:06;;;;;;;3.70;2.30;;;;;;;;;;5044156;28;20293;-69
2022/03/31 05:11:32;;;;;;;3.90;2.30;;;;;;;;;;5049229;28;20184;-69
2022/03/31 05:13:57;;;;;;;6.20;2.87;;;;;;;;;;5040699;28;20178;-70
2022/03/31 05:16:22;;;;;;;5.03;3.20;;;;;;;;;;5048739;28;20695;-69
2022/03/31 05:18:48;;;;;;;3.07;1.87;;;;;;;;;;5048970;28;20281;-70
2022/03/31 05:21:13;;;;;;;2.50;2.00;;;;;;;;;;5043175;28;20174;-69
2022/03/31 05:23:38;;;;;;;4.03;2.00;;;;;;;;;;5047748;28;20208;-70
2022/03/31 05:26:03;;;;;;;6.80;1.73;;;;;;;;;;5051275;28;20173;-70
2022/03/31 05:28:29;;;;;;;5.63;2.50;;;;;;;;;;5046125;28;20204;-70
2022/03/31 05:30:54;;;;;;;2.77;2.03;;;;;;;;;;5045134;28;20181;-70
2022/03/31 05:33:19;;;;;;;3.73;2.57;;;;;;;;;;5044341;28;20173;-69
2022/03/31 05:35:45;;;;;;;4.17;2.13;;;;;;;;;;5043899;28;20199;-70
2022/03/31 05:38:10;;;;;;;8.57;2.40;;;;;;;;;;5040959;28;20213;-70
2022/03/31 05:40:35;;;;;;;4.13;2.33;;;;;;;;;;5049643;28;20190;-70
2022/03/31 05:43:00;;;;;;;4.87;2.50;;;;;;;;;;5048107;28;20177;-70
2022/03/31 05:45:26;;;;;;;5.27;2.63;;;;;;;;;;5046596;28;20277;-69
2022/03/31 05:47:52;;;;;;;5.63;2.50;;;;;;;;;;5049411;28;20229;-70
2022/03/31 05:50:18;;;;;;;3.73;2.83;;;;;;;;;;5048738;28;20205;-70
2022/03/31 05:52:43;;;;;;;4.67;2.07;;;;;;;;;;5045512;28;20273;-69
2022/03/31 05:55:09;;;;;;;5.93;3.60;;;;;;;;;;5049694;28;20201;-70
2022/03/31 05:57:35;;;;;;;5.93;2.77;;;;;;;;;;5041907;28;20201;-70
2022/03/31 06:00:02;;;;;;;4.27;2.97;;;;;;;;;;5048889;28;20311;-70
2022/03/31 06:02:27;;;;;;;9.17;4.20;;;;;;;;;;5047136;28;20204;-70
2022/03/31 06:04:52;;;;;;;5.23;3.00;;;;;;;;;;5045562;28;20189;-70
2022/03/31 06:07:17;;;;;;;3.70;2.57;;;;;;;;;;5049179;28;20209;-70
2022/03/31 06:09:42;;;;;;;4.83;2.90;;;;;;;;;;5047571;28;20173;-70
2022/03/31 06:12:08;;;;;;;3.43;2.20;;;;;;;;;;5043271;28;20197;-71
2022/03/31 06:14:33;;;;;;;4.40;2.80;;;;;;;;;;5046355;28;20247;-70
2022/03/31 06:16:58;;;;;;;4.97;2.97;;;;;;;;;;5043456;28;20243;-70
2022/03/31 06:19:23;;;;;;;3.97;3.00;;;;;;;;;;5048140;28;20197;-70
2022/03/31 06:21:49;;;;;;;6.13;2.97;;;;;;;;;;5049314;28;20219;-70
2022/03/31 06:24:14;;;;;;;4.40;3.07;;;;;;;;;;5047830;28;20531;-70
2022/03/31 06:26:39;;;;;;;9.10;3.17;;;;;;;;;;5047374;28;20563;-70
2022/03/31 06:29:05;;;;;;;3.87;2.77;;;;;;;;;;5049643;28;20205;-70
2022/03/31 06:31:30;;;;;;;5.93;3.37;;;;;;;;;;5048402;28;20647;-71
2022/03/31 06:33:55;;;;;;;7.37;3.40;;;;;;;;;;5048447;28;20181;-70
2022/03/31 06:36:21;;;;;;;5.90;2.93;;;;;;;;;;5051112;28;20182;-70
2022/03/31 06:38:46;;;;;;;4.90;3.10;;;;;;;;;;5048658;28;20210;-70
2022/03/31 06:41:15;;;;;;;7.20;3.43;;;;;;;;;;5052796;28;20178;-70
2022/03/31 06:43:42;;;;;;;7.77;3.50;;;;;;;;;;5049856;28;20182;-71
2022/03/31 06:46:08;;;;;;;6.00;3.90;;;;;;;;;;5047194;28;20198;-70
2022/03/31 06:48:36;;;;;;;7.33;3.47;;;;;;;;;;5053875;28;20283;-70
2022/03/31 06:51:01;;;;;;;7.03;3.63;;;;;;;;;;5054136;28;20604;-70
2022/03/31 06:53:26;;;;;;;4.73;3.90;;;;;;;;;;5054769;28;20186;-70
2022/03/31 06:55:52;;;;;;;3.17;2.87;;;;;;;;;;5053770;28;20228;-70
2022/03/31 06:58:17;;;;;;;4.13;3.50;;;;;;;;;;5052953;28;20694;-70
2022/03/31 07:00:42;;;;;;;5.30;3.57;;;;;;;;;;5047593;28;20174;-70
2022/03/31 07:03:07;;;;;;;6.90;3.30;;;;;;;;;;5047028;28;20178;-70
2022/03/31 07:05:35;;;;;;;6.03;3.43;;;;;;;;;;5053827;28;20260;-70
2022/03/31 07:08:00;;;;;;;3.97;3.03;;;;;;;;;;5044267;28;20194;-71
2022/03/31 07:10:25;;;;;;;6.47;3.00;;;;;;;;;;5046667;28;20543;-71
2022/03/31 07:12:50;;;;;;;4.03;3.30;;;;;;;;;;5045149;28;20218;-72
2022/03/31 07:15:16;;;;;;;4.63;3.30;;;;;;;;;;5042343;28;20259;-70
2022/03/31 07:17:41;;;;;;;3.83;2.90;;;;;;;;;;5048243;28;20194;-70
2022/03/31 07:20:08;;;;;;;4.57;2.97;;;;;;;;;;5046882;28;20196;-70
2022/03/31 07:22:33;;;;;;;4.70;3.07;;;;;;;;;;5051209;28;20178;-70
2022/03/31 07:24:58;;;;;;;5.10;2.93;;;;;;;;;;5051958;28;20666;-70
2022/03/31 07:27:23;;;;;;;3.70;2.70;;;;;;;;;;5050738;28;20706;-70
2022/03/31 07:29:49;;;;;;;4.07;2.87;;;;;;;;;;5048590;28;20311;-70
2022/03/31 07:32:14;;;;;;;3.20;2.90;;;;;;;;;;5041274;28;20192;-70
2022/03/31 07:34:39;;;;;;;5.20;3.67;;;;;;;;;;5045541;28;20202;-70
2022/03/31 07:37:05;;;;;;;4.37;3.47;;;;;;;;;;5051344;28;20655;-70
2022/03/31 07:39:30;;;;;;;5.17;4.67;;;;;;;;;;5048355;28;20170;-70
2022/03/31 07:41:55;;;;;;;3.47;2.70;;;;;;;;;;5048285;28;20197;-69
2022/03/31 07:44:21;;;;;;;5.33;2.57;;;;;;;;;;5048079;28;20631;-70
2022/03/31 07:46:46;;;;;;;5.13;3.47;;;;;;;;;;5045918;28;20400;-70
2022/03/31 07:49:12;;;;;;;3.00;2.63;;;;;;;;;;5048833;28;20662;-70
2022/03/31 07:51:37;;;;;;;2.70;2.07;;;;;;;;;;5049136;28;20196;-70
2022/03/31 07:54:03;;;;;;;4.43;2.60;;;;;;;;;;5046417;28;20648;-70
2022/03/31 07:56:28;;;;;;;4.67;2.50;;;;;;;;;;5029729;28;20189;-70
2022/03/31 07:58:53;;;;;;;4.33;2.73;;;;;;;;;;5046023;28;20190;-70
2022/03/31 08:01:18;;;;;;;3.20;2.53;;;;;;;;;;5048830;28;20165;-70
2022/03/31 08:03:43;;;;;;;4.87;2.03;;;;;;;;;;5051212;28;20216;-70
2022/03/31 08:06:09;;;;;;;2.80;2.20;;;;;;;;;;5050433;28;20182;-70
2022/03/31 08:08:34;;;;;;;2.63;2.27;;;;;;;;;;5050328;28;20197;-70
2022/03/31 08:10:59;;;;;;;3.70;2.27;;;;;;;;;;5049804;28;20241;-70
2022/03/31 08:13:26;;;;;;;1.93;1.73;;;;;;;;;;5048660;28;20186;-70
2022/03/31 08:15:53;;;;;;;2.23;2.03;;;;;;;;;;5049045;28;20200;-70
2022/03/31 08:18:18;;;;;;;3.87;2.13;;;;;;;;;;5051884;28;20194;-70
2022/03/31 08:20:43;;;;;;;3.30;2.10;;;;;;;;;;5050558;28;20223;-70
2022/03/31 08:23:08;;;;;;;1.93;1.80;;;;;;;;;;5051886;28;20210;-70
2022/03/31 08:25:34;;;;;;;2.37;2.00;;;;;;;;;;5044545;28;20181;-70
2022/03/31 08:27:59;;;;;;;4.63;2.00;;;;;;;;;;5044572;28;20198;-70
2022/03/31 08:30:25;;;;;;;3.70;2.20;;;;;;;;;;5049414;28;20185;-70
2022/03/31 08:32:50;;;;;;;3.00;1.93;;;;;;;;;;5046426;28;20185;-70
2022/03/31 08:35:16;;;;;;;3.73;2.63;;;;;;;;;;5051235;28;20216;-70
2022/03/31 08:37:41;;;;;;;2.37;1.97;;;;;;;;;;5047254;28;20205;-71
2022/03/31 08:40:08;;;;;;;1.83;1.73;;;;;;;;;;5047776;28;20213;-70
2022/03/31 08:42:33;;;;;;;3.83;2.10;;;;;;;;;;5047101;28;20213;-71
2022/03/31 08:44:59;;;;;;;5.00;2.40;;;;;;;;;;5051015;28;20634;-71
2022/03/31 08:47:26;;;;;;;1.93;1.73;;;;;;;;;;5046975;28;20615;-70
2022/03/31 08:49:52;;;;;;;2.40;2.10;;;;;;;;;;5050598;28;20666;-71
2022/03/31 08:52:17;;;;;;;2.40;2.20;;;;;;;;;;5052216;28;20625;-71
2022/03/31 08:54:43;;;;;;;2.50;2.17;;;;;;;;;;5050902;28;20292;-71
2022/03/31 08:57:08;;;;;;;2.40;2.20;;;;;;;;;;5046262;28;20178;-70
2022/03/31 08:59:33;;;;;;;3.47;2.47;;;;;;;;;;5047131;28;20793;-70
2022/03/31 09:01:58;;;;;;;5.10;2.47;;;;;;;;;;5056850;28;20567;-71
2022/03/31 09:04:24;;;;;;;3.13;2.90;;;;;;;;;;5049370;28;20257;-70
2022/03/31 09:07:02;;;;;;;2.83;2.63;;;;;;;;;;5048268;28;20182;-71
2022/03/31 09:09:27;;;;;;;3.90;3.40;;;;;;;;;;5049270;28;20181;-70
2022/03/31 09:11:53;;;;;;;3.10;2.80;;;;;;;;;;5047353;28;20951;-71
2022/03/31 09:14:27;;;;;;;4.57;3.97;;;;;;;;;;5045690;28;20328;-70
2022/03/31 09:16:52;;;;;;;4.43;4.00;;;;;;;;;;5046476;28;20344;-71
2022/03/31 09:19:17;;;;;;;3.90;3.47;;;;;;;;;;5046407;28;20276;-70
2022/03/31 09:22:00;;;;;;;3.30;3.00;;;;;;;;;;5050464;28;20227;-70
2022/03/31 09:24:27;;;;;;;4.27;3.87;;;;;;;;;;5046762;28;20190;-71
2022/03/31 09:26:53;;;;;;;3.87;3.47;;;;;;;;;;5046065;28;20181;-71
2022/03/31 09:29:23;;;;;;;4.37;3.70;;;;;;;;;;5041895;28;20182;-70
2022/03/31 09:31:49;;;;;;;4.07;3.67;;;;;;;;;;5049547;28;20181;-70
2022/03/31 09:34:15;;;;;;;4.83;4.30;;;;;;;;;;5043615;28;20187;-71
2022/03/31 09:36:51;;;;;;;4.67;4.07;;;;;;;;;;5048520;28;20177;-71
2022/03/31 09:39:17;;;;;;;4.43;3.90;;;;;;;;;;5039765;28;20666;-70
2022/03/31 09:41:43;;;;;;;3.97;3.57;;;;;;;;;;5043758;28;20268;-71
2022/03/31 09:44:13;;;;;;;4.40;4.00;;;;;;;;;;5047906;28;20230;-70
2022/03/31 09:46:40;;;;;;;4.80;4.17;;;;;;;;;;5045489;28;20561;-71
2022/03/31 09:49:11;;;;;;;4.70;3.93;;;;;;;;;;5049068;28;20247;-72
2022/03/31 09:51:36;;;;;;;4.27;3.87;;;;;;;;;;5042981;28;20185;-70
2022/03/31 09:54:02;;;;;;;4.23;3.83;;;;;;;;;;5049514;28;20209;-70
2022/03/31 09:56:27;;;;;;;4.80;4.27;;;;;;;;;;5049403;28;20204;-70
2022/03/31 09:58:55;;;;;;;4.50;4.10;;;;;;;;;;5050382;28;20352;-70
2022/03/31 10:01:21;;;;;;;4.50;4.10;;;;;;;;;;5048209;28;20555;-70
2022/03/31 10:03:46;;;;;;;4.23;3.80;;;;;;;;;;5048365;28;20186;-70
2022/03/31 10:06:12;;;;;;;3.90;3.60;;;;;;;;;;5050279;28;20181;-70
2022/03/31 10:08:40;;;;;;;4.30;3.90;;;;;;;;;;5051932;28;20193;-70
2022/03/31 10:11:06;;;;;;;4.90;4.40;;;;;;;;;;5052224;28;20182;-70
2022/03/31 10:13:36;;;;;;;4.07;3.77;;;;;;;;;;5052927;28;20208;-71
2022/03/31 10:16:08;;;;;;;4.10;3.70;;;;;;;;;;5055130;28;20251;-70
2022/03/31 10:18:34;;;;;;;4.37;3.97;;;;;;;;;;5052550;28;20201;-71
2022/03/31 10:21:00;;;;;;;4.17;3.80;;;;;;;;;;5053170;28;20192;-72
2022/03/31 10:26:22;;;;;;;4.20;3.80;;;;;;;;;;5050089;28;20299;-71
2022/03/31 10:28:57;;;;;;;4.10;3.80;;;;;;;;;;5054028;28;20245;-71
2022/03/31 10:31:32;;;;;;;4.30;3.83;;;;;;;;;;5055324;28;20213;-71
2022/03/31 10:33:57;;;;;;;5.10;4.67;;;;;;;;;;5047157;28;20185;-71
2022/03/31 10:36:23;;;;;;;4.43;4.03;;;;;;;;;;5047998;28;20202;-70
2022/03/31 10:38:52;;;;;;;4.53;4.13;;;;;;;;;;5055866;28;20213;-71
2022/03/31 10:41:18;;;;;;;4.83;4.33;;;;;;;;;;5050925;28;20386;-70
2022/03/31 10:43:47;;;;;;;5.13;4.63;;;;;;;;;;5052478;28;20265;-70
2022/03/31 10:46:19;;;;;;;5.13;4.63;;;;;;;;;;5050355;28;20577;-71
2022/03/31 10:48:49;;;;;;;4.77;4.27;;;;;;;;;;5047421;28;20201;-70
2022/03/31 10:51:15;;;;;;;6.13;4.50;;;;;;;;;;5053014;28;20186;-70
2022/03/31 10:53:40;;;;;;;5.00;4.50;;;;;;;;;;5052418;28;20662;-70
2022/03/31 10:56:35;;;;;;;5.27;4.60;;;;;;;;;;5045910;28;20217;-70
2022/03/31 10:59:02;;;;;;;4.87;4.37;;;;;;;;;;5019899;28;20229;-72
2022/03/31 11:01:28;;;;;;;6.33;4.50;;;;;;;;;;5051177;28;20247;-71
2022/03/31 11:03:58;;;;;;;6.17;4.50;;;;;;;;;;5049237;28;20188;-71
2022/03/31 11:06:24;;;;;;;5.27;4.70;;;;;;;;;;5050888;28;20327;-71
2022/03/31 11:08:49;;;;;;;5.20;4.70;;;;;;;;;;5049010;28;20288;-69
2022/03/31 11:11:19;;;;;;;3.87;3.50;;;;;;;;;;5052840;28;20196;-72
2022/03/31 11:13:45;;;;;;;4.30;3.90;;;;;;;;;;5053341;28;20190;-71
2022/03/31 11:16:10;;;;;;;4.47;3.90;;;;;;;;;;5048767;28;20589;-71
2022/03/31 11:18:35;;;;;;;4.17;3.77;;;;;;;;;;5050763;28;20194;-72
2022/03/31 11:21:02;;;;;;;4.93;3.97;;;;;;;;;;5052478;28;20192;-71
2022/03/31 11:23:29;;;;;;;4.17;3.87;;;;;;;;;;5049589;28;20260;-71
2022/03/31 11:25:54;;;;;;;4.53;4.13;;;;;;;;;;5052930;28;20561;-71
2022/03/31 11:28:20;;;;;;;4.30;3.90;;;;;;;;;;5049577;28;20205;-72
2022/03/31 11:30:46;;;;;;;4.17;3.73;;;;;;;;;;5047688;28;20186;-70
2022/03/31 11:33:13;;;;;;;4.83;4.30;;;;;;;;;;5029863;28;20255;-71
2022/03/31 11:35:38;;;;;;;6.53;4.67;;;;;;;;;;5024136;28;20209;-70
2022/03/31 11:38:05;;;;;;;4.60;4.20;;;;;;;;;;5036121;28;20224;-70
2022/03/31 11:40:32;;;;;;;4.73;4.13;;;;;;;;;;5053470;28;20205;-70
2022/03/31 11:42:59;;;;;;;5.43;4.20;;;;;;;;;;5051324;28;20169;-70
2022/03/31 11:45:29;;;;;;;4.27;3.80;;;;;;;;;;5052367;28;20192;-70
2022/03/31 11:47:55;;;;;;;3.87;3.47;;;;;;;;;;5050563;28;20630;-70
2022/03/31 11:50:21;;;;;;;4.43;3.83;;;;;;;;;;5048849;28;20181;-70
2022/03/31 11:52:48;;;;;;;4.13;3.73;;;;;;;;;;5049554;28;20556;-70
2022/03/31 11:55:14;;;;;;;4.53;4.00;;;;;;;;;;5050162;28;20222;-70
2022/03/31 11:57:39;;;;;;;4.10;3.70;;;;;;;;;;5049870;28;20193;-70
2022/03/31 12:00:09;;;;;;;4.40;3.33;;;;;;;;;;5047418;28;20644;-71
2022/03/31 12:02:34;;;;;;;3.40;3.10;;;;;;;;;;5054355;28;20178;-71
2022/03/31 12:05:02;;;;;;;5.27;4.30;;;;;;;;;;5051311;28;20189;-71
2022/03/31 12:07:27;;;;;;;4.20;3.80;;;;;;;;;;5043332;28;20256;-71
2022/03/31 12:09:52;;;;;;;4.20;3.80;;;;;;;;;;5050802;28;20227;-69
2022/03/31 12:12:17;;;;;;;4.80;4.13;;;;;;;;;;5049511;28;20184;-71
2022/03/31 12:14:56;;;;;;;4.67;4.17;;;;;;;;;;5053606;28;20236;-70
2022/03/31 12:17:21;;;;;;;4.50;4.10;;;;;;;;;;5044377;28;20201;-70
2022/03/31 12:19:47;;;;;;;5.57;4.37;;;;;;;;;;5051147;28;20188;-70
2022/03/31 12:22:12;;;;;;;5.63;4.90;;;;;;;;;;5048528;28;20173;-70
2022/03/31 12:24:47;;;;;;;4.30;3.90;;;;;;;;;;5054900;28;20178;-70
2022/03/31 12:27:14;;;;;;;4.60;4.00;;;;;;;;;;5044269;28;20786;-70
2022/03/31 12:29:39;;;;;;;4.83;4.13;;;;;;;;;;5043931;28;20521;-70
2022/03/31 12:32:04;;;;;;;4.30;3.90;;;;;;;;;;5041366;28;20197;-71
2022/03/31 12:34:30;;;;;;;4.10;3.67;;;;;;;;;;5048091;28;20201;-71
2022/03/31 12:36:56;;;;;;;4.43;4.03;;;;;;;;;;5042956;28;20232;-70
2022/03/31 12:39:21;;;;;;;4.20;3.40;;;;;;;;;;5034334;28;22083;-70
2022/03/31 12:41:50;;;;;;;3.43;3.13;;;;;;;;;;5044415;28;20648;-70
2022/03/31 12:44:16;;;;;;;3.93;3.53;;;;;;;;;;5042265;28;20186;-71
2022/03/31 12:46:51;;;;;;;3.67;3.07;;;;;;;;;;5050409;28;20178;-71
2022/03/31 12:49:17;;;;;;;3.93;2.63;;;;;;;;;;5048359;28;20264;-71
2022/03/31 12:51:45;;;;;;;3.30;2.90;;;;;;;;;;5044804;28;20180;-71
2022/03/31 12:54:25;;;;;;;2.97;2.67;;;;;;;;;;5050330;28;20181;-71
2022/03/31 12:56:53;;;;;;;2.67;2.47;;;;;;;;;;5046449;28;20254;-71
2022/03/31 12:59:20;;;;;;;2.30;2.10;;;;;;;;;;5049065;28;20186;-71
2022/03/31 13:01:55;;;;;;;2.30;2.10;;;;;;;;;;5049499;28;20182;-70
2022/03/31 13:04:20;;;;;;;2.67;2.47;;;;;;;;;;5040433;28;20180;-71
2022/03/31 13:06:45;;;;;;;2.40;2.20;;;;;;;;;;5043430;28;20190;-70
2022/03/31 13:09:11;;;;;;;2.70;2.50;;;;;;;;;;5050105;28;20259;-70
2022/03/31 13:11:36;;;;;;;2.90;2.57;;;;;;;;;;5048275;28;20189;-70
2022/03/31 13:14:01;;;;;;;3.17;2.87;;;;;;;;;;5046253;28;20169;-70
2022/03/31 13:16:27;;;;;;;2.20;2.00;;;;;;;;;;5043683;28;20222;-70
2022/03/31 13:18:53;;;;;;;2.33;2.13;;;;;;;;;;5048848;28;20296;-70
2022/03/31 13:21:19;;;;;;;2.27;2.07;;;;;;;;;;5048861;28;20276;-70
2022/03/31 13:23:44;;;;;;;2.33;2.13;;;;;;;;;;5050123;28;20223;-70
2022/03/31 13:26:09;;;;;;;2.30;2.10;;;;;;;;;;5048687;28;20270;-71
2022/03/31 13:28:36;;;;;;;1.67;1.57;;;;;;;;;;5049866;28;20465;-71
2022/03/31 13:31:01;;;;;;;2.07;1.97;;;;;;;;;;5042833;28;20182;-71
2022/03/31 13:33:26;;;;;;;1.80;1.70;;;;;;;;;;5050725;28;20314;-71
2022/03/31 13:35:51;;;;;;;2.50;2.30;;;;;;;;;;5046952;28;20193;-71
2022/03/31 13:38:16;;;;;;;1.80;1.70;;;;;;;;;;5046343;28;20216;-71
2022/03/31 13:40:42;;;;;;;1.90;1.80;;;;;;;;;;5041232;28;20170;-71
2022/03/31 13:43:08;;;;;;;2.03;1.90;;;;;;;;;;5031951;28;20272;-71
2022/03/31 13:45:33;;;;;;;2.17;1.97;;;;;;;;;;5045314;28;20251;-71
2022/03/31 13:47:59;;;;;;;2.57;2.07;;;;;;;;;;5045345;28;20202;-70
2022/03/31 13:50:24;;;;;;;2.37;1.70;;;;;;;;;;5043665;28;20191;-71
2022/03/31 13:53:43;;;;;;;1.77;1.67;;;;;;;;;;5046703;28;20281;-69
2022/03/31 13:55:34;;;;;;;1.27;1.17;;;;;;;;;;5043964;28;20296;-69
2022/03/31 14:03:27;;;;;;;1.60;1.50;;;;;;;;;;5047104;28;20256;-70
2022/03/31 14:05:52;;;;;;;1.37;1.27;;;;;;;;;;5050406;28;20185;-70
2022/03/31 14:08:18;;;;;;;1.53;1.43;;;;;;;;;;5045832;28;20572;-70
2022/03/31 14:10:43;;;;;;;1.30;1.17;;;;;;;;;;5046097;28;20217;-70
2022/03/31 14:13:08;;;;;;;1.37;1.27;;;;;;;;;;5046546;28;20185;-70
2022/03/31 14:15:33;;;;;;;1.30;1.20;;;;;;;;;;5045876;28;20235;-70
2022/03/31 14:18:00;;;;;;;0.93;0.90;;;;;;;;;;5048778;28;20226;-70
2022/03/31 14:20:26;;;;;;;1.10;1.00;;;;;;;;;;5046386;28;20180;-71
2022/03/31 14:22:51;;;;;;;1.47;1.37;;;;;;;;;;5044567;28;20186;-70
2022/03/31 14:25:16;;;;;;;1.20;1.10;;;;;;;;;;5050079;28;20633;-70
2022/03/31 14:27:41;;;;;;;1.20;1.10;;;;;;;;;;5047090;28;20204;-70
2022/03/31 14:30:09;;;;;;;1.20;1.10;;;;;;;;;;5049909;28;20188;-70
2022/03/31 14:32:34;;;;;;;1.70;1.60;;;;;;;;;;5046259;28;20601;-70
2022/03/31 14:34:59;;;;;;;1.33;1.20;;;;;;;;;;5042129;28;20196;-70
2022/03/31 14:37:24;;;;;;;1.60;1.40;;;;;;;;;;5049161;28;20364;-70
2022/03/31 14:39:50;;;;;;;1.30;1.20;;;;;;;;;;5043376;28;20229;-70
2022/03/31 14:42:15;;;;;;;1.30;1.20;;;;;;;;;;5048235;28;20174;-70
2022/03/31 14:44:41;;;;;;;1.43;1.33;;;;;;;;;;5032747;28;20189;-69
2022/03/31 14:47:06;;;;;;;1.20;1.10;;;;;;;;;;5047908;28;20188;-72